Time;durP1;ratioP1;P1;durP2;ratioP2;P2;SDS_P1;SDS_P2;PMS_P1;PMS_P2;Temp;Humidity;BMP_temperature;BMP_pressure;BME280_temperature;BME280_humidity;BME280_pressure;Samples;Min_cycle;Max_cycle;Signal;HPM_P1;HPM_P2
2021/12/29 00:00:37;;;;;;;11.07;5.69;;;;;;;;;;348059;152;866341;-57
2021/12/29 00:01:39;;;;;;;9.67;5.16;;;;;;;;;;347794;149;866972;-55
2021/12/29 00:02:40;;;;;;;11.27;5.68;;;;;;;;;;348784;149;865608;-55
2021/12/29 00:03:42;;;;;;;9.96;5.24;;;;;;;;;;350424;149;865080;-55
2021/12/29 00:04:44;;;;;;;13.91;5.75;;;;;;;;;;350361;149;867326;-55
2021/12/29 00:05:45;;;;;;;10.99;5.25;;;;;;;;;;349803;149;863449;-55
2021/12/29 00:06:48;;;;;;;10.94;4.85;;;;;;;;;;352013;150;866755;-54
2021/12/29 00:07:50;;;;;;;10.58;5.29;;;;;;;;;;349193;149;865990;-55
2021/12/29 00:08:51;;;;;;;11.19;5.33;;;;;;;;;;348035;150;857149;-55
2021/12/29 00:09:55;;;;;;;13.22;6.37;;;;;;;;;;350846;152;864864;-55
2021/12/29 00:10:57;;;;;;;8.88;5.01;;;;;;;;;;349041;149;864984;-55
2021/12/29 00:11:58;;;;;;;10.53;4.99;;;;;;;;;;350000;149;865104;-55
2021/12/29 00:13:00;;;;;;;7.92;4.64;;;;;;;;;;350091;152;857342;-55
2021/12/29 00:14:02;;;;;;;7.69;4.13;;;;;;;;;;347257;149;857281;-55
2021/12/29 00:15:04;;;;;;;9.67;4.95;;;;;;;;;;348785;150;857838;-55
2021/12/29 00:16:06;;;;;;;10.45;5.52;;;;;;;;;;347677;149;865782;-55
2021/12/29 00:17:07;;;;;;;9.13;5.28;;;;;;;;;;349931;152;858889;-53
2021/12/29 00:18:09;;;;;;;9.29;5.13;;;;;;;;;;349085;149;865057;-55
2021/12/29 00:19:10;;;;;;;9.98;5.36;;;;;;;;;;347933;150;857267;-55
2021/12/29 00:20:14;;;;;;;8.35;4.77;;;;;;;;;;350036;152;861761;-55
2021/12/29 00:21:16;;;;;;;7.92;4.96;;;;;;;;;;348744;150;857696;-55
2021/12/29 00:22:17;;;;;;;10.57;5.00;;;;;;;;;;349527;149;859390;-55
2021/12/29 00:23:19;;;;;;;7.95;4.79;;;;;;;;;;349085;152;865115;-55
2021/12/29 00:24:20;;;;;;;12.36;5.05;;;;;;;;;;347890;152;857332;-55
2021/12/29 00:25:22;;;;;;;9.42;5.60;;;;;;;;;;347147;152;865307;-56
2021/12/29 00:26:24;;;;;;;9.73;4.79;;;;;;;;;;348372;149;863322;-55
2021/12/29 00:27:25;;;;;;;8.54;5.00;;;;;;;;;;348976;152;857271;-55
2021/12/29 00:28:27;;;;;;;9.31;5.03;;;;;;;;;;350950;150;866551;-55
2021/12/29 00:29:28;;;;;;;8.42;5.01;;;;;;;;;;348699;149;857713;-55
2021/12/29 00:30:30;;;;;;;9.76;5.01;;;;;;;;;;351059;149;857267;-55
2021/12/29 00:31:32;;;;;;;9.10;4.79;;;;;;;;;;351216;152;857216;-55
2021/12/29 00:32:33;;;;;;;8.17;5.28;;;;;;;;;;350161;150;857549;-55
2021/12/29 00:33:35;;;;;;;9.14;4.54;;;;;;;;;;349382;150;857224;-55
2021/12/29 00:34:36;;;;;;;7.99;4.53;;;;;;;;;;349608;149;864940;-56
2021/12/29 00:35:38;;;;;;;10.37;5.21;;;;;;;;;;348744;152;864975;-55
2021/12/29 00:36:40;;;;;;;10.13;5.23;;;;;;;;;;347175;150;863851;-55
2021/12/29 00:37:42;;;;;;;8.76;4.74;;;;;;;;;;349192;149;857404;-55
2021/12/29 00:38:45;;;;;;;8.71;4.82;;;;;;;;;;347467;152;866064;-55
2021/12/29 00:39:46;;;;;;;8.88;5.19;;;;;;;;;;350251;149;866990;-55
2021/12/29 00:40:48;;;;;;;9.32;5.33;;;;;;;;;;349226;149;858180;-54
2021/12/29 00:41:49;;;;;;;9.65;5.22;;;;;;;;;;350797;152;865768;-54
2021/12/29 00:42:51;;;;;;;12.54;5.42;;;;;;;;;;350265;152;865006;-54
2021/12/29 00:43:54;;;;;;;9.75;5.08;;;;;;;;;;349108;149;865317;-54
2021/12/29 00:44:55;;;;;;;11.22;5.48;;;;;;;;;;348096;149;859011;-54
2021/12/29 00:45:57;;;;;;;10.59;5.46;;;;;;;;;;351109;152;857628;-54
2021/12/29 00:47:00;;;;;;;9.14;5.56;;;;;;;;;;350221;150;856432;-54
2021/12/29 00:48:03;;;;;;;8.19;5.12;;;;;;;;;;348525;151;866700;-53
2021/12/29 00:49:04;;;;;;;9.54;5.45;;;;;;;;;;348650;149;857265;-55
2021/12/29 00:50:07;;;;;;;8.27;4.93;;;;;;;;;;347647;152;865200;-55
2021/12/29 00:51:09;;;;;;;9.34;5.09;;;;;;;;;;348704;149;857449;-55
2021/12/29 00:52:12;;;;;;;7.79;4.91;;;;;;;;;;348121;151;857900;-55
2021/12/29 00:53:14;;;;;;;13.28;5.87;;;;;;;;;;348225;149;865115;-55
2021/12/29 00:54:16;;;;;;;9.81;5.24;;;;;;;;;;347877;152;859672;-55
2021/12/29 00:55:17;;;;;;;10.15;5.83;;;;;;;;;;348506;150;859625;-55
2021/12/29 00:56:19;;;;;;;9.97;5.41;;;;;;;;;;349585;152;866795;-55
2021/12/29 00:57:21;;;;;;;14.79;5.68;;;;;;;;;;350614;149;857786;-55
2021/12/29 00:58:22;;;;;;;10.06;5.70;;;;;;;;;;351527;150;865034;-55
2021/12/29 00:59:24;;;;;;;10.51;4.75;;;;;;;;;;349561;151;865370;-55
2021/12/29 01:00:26;;;;;;;11.20;5.41;;;;;;;;;;345196;149;864963;-55
2021/12/29 01:01:29;;;;;;;10.27;5.52;;;;;;;;;;343912;155;864890;-55
2021/12/29 01:02:31;;;;;;;10.88;5.21;;;;;;;;;;342927;151;858831;-55
2021/12/29 01:03:34;;;;;;;10.71;5.09;;;;;;;;;;343268;152;857348;-55
2021/12/29 01:04:36;;;;;;;10.77;5.21;;;;;;;;;;342660;155;865864;-55
2021/12/29 01:05:37;;;;;;;9.58;5.31;;;;;;;;;;343411;152;857761;-56
2021/12/29 01:06:39;;;;;;;10.76;5.28;;;;;;;;;;342277;152;865380;-56
2021/12/29 01:07:41;;;;;;;8.26;4.54;;;;;;;;;;342042;151;857587;-55
2021/12/29 01:08:43;;;;;;;8.55;4.53;;;;;;;;;;344468;155;866429;-55
2021/12/29 01:09:44;;;;;;;8.21;4.73;;;;;;;;;;343037;153;857985;-55
2021/12/29 01:10:46;;;;;;;8.51;4.57;;;;;;;;;;342163;152;865289;-55
2021/12/29 01:11:48;;;;;;;11.66;6.09;;;;;;;;;;344464;151;857803;-55
2021/12/29 01:12:57;;;;;;;11.67;6.11;;;;;;;;;;342102;155;865030;-55
2021/12/29 01:13:56;;;;;;;11.12;5.96;;;;;;;;;;341301;151;865030;-56
2021/12/29 01:14:58;;;;;;;10.18;5.97;;;;;;;;;;342586;151;857250;-55
2021/12/29 01:17:08;;;;;;;12.33;6.51;;;;;;;;;;342538;151;859818;-59
2021/12/29 01:18:09;;;;;;;15.99;6.78;;;;;;;;;;342812;151;858918;-56
2021/12/29 01:19:15;;;;;;;12.43;6.21;;;;;;;;;;344009;151;857359;-56
2021/12/29 01:20:19;;;;;;;16.00;6.69;;;;;;;;;;345987;151;865139;-57
2021/12/29 01:21:22;;;;;;;14.58;6.54;;;;;;;;;;342826;151;859696;-56
2021/12/29 01:22:24;;;;;;;14.11;6.91;;;;;;;;;;341068;153;859414;-57
2021/12/29 01:23:25;;;;;;;14.88;6.56;;;;;;;;;;342016;154;865863;-57
2021/12/29 01:24:30;;;;;;;14.75;7.09;;;;;;;;;;344540;152;865067;-55
2021/12/29 01:25:31;;;;;;;12.02;6.33;;;;;;;;;;342020;151;857360;-54
2021/12/29 01:26:33;;;;;;;10.99;6.57;;;;;;;;;;338491;154;867418;-55
2021/12/29 01:27:35;;;;;;;14.86;6.94;;;;;;;;;;346044;154;864928;-53
2021/12/29 01:28:36;;;;;;;11.74;6.41;;;;;;;;;;342918;153;864999;-52
2021/12/29 01:29:38;;;;;;;12.96;5.75;;;;;;;;;;350901;150;865117;-53
2021/12/29 01:30:39;;;;;;;13.59;7.41;;;;;;;;;;350197;150;865036;-55
2021/12/29 01:31:41;;;;;;;13.65;6.44;;;;;;;;;;351513;150;865005;-54
2021/12/29 01:32:43;;;;;;;11.53;6.63;;;;;;;;;;353202;150;866520;-55
2021/12/29 01:33:45;;;;;;;12.57;6.79;;;;;;;;;;352534;150;860272;-55
2021/12/29 01:34:46;;;;;;;12.98;7.22;;;;;;;;;;345881;153;857668;-54
2021/12/29 01:35:48;;;;;;;14.91;7.06;;;;;;;;;;346471;152;858718;-55
2021/12/29 01:36:50;;;;;;;12.99;6.96;;;;;;;;;;344476;151;864963;-54
2021/12/29 01:37:51;;;;;;;12.82;7.13;;;;;;;;;;340655;154;864954;-53
2021/12/29 01:38:53;;;;;;;9.90;6.29;;;;;;;;;;345916;155;864918;-53
2021/12/29 01:39:54;;;;;;;12.15;6.54;;;;;;;;;;339983;154;857228;-54
2021/12/29 01:40:56;;;;;;;14.26;7.25;;;;;;;;;;342890;153;862951;-53
2021/12/29 01:41:58;;;;;;;14.04;6.77;;;;;;;;;;343070;153;866738;-53
2021/12/29 01:42:59;;;;;;;11.18;6.05;;;;;;;;;;343853;154;865007;-52
2021/12/29 01:44:01;;;;;;;14.46;6.56;;;;;;;;;;342149;154;865001;-53
2021/12/29 01:45:03;;;;;;;14.76;6.66;;;;;;;;;;340812;155;866643;-54
2021/12/29 01:46:05;;;;;;;13.69;7.09;;;;;;;;;;343584;155;865174;-54
2021/12/29 01:47:06;;;;;;;14.81;6.49;;;;;;;;;;343872;151;867075;-55
2021/12/29 01:48:08;;;;;;;17.16;7.36;;;;;;;;;;341549;154;865015;-54
2021/12/29 01:49:10;;;;;;;17.13;7.42;;;;;;;;;;342653;154;865112;-55
2021/12/29 01:50:13;;;;;;;12.85;7.04;;;;;;;;;;344078;154;863495;-55
2021/12/29 01:51:18;;;;;;;12.88;7.33;;;;;;;;;;342699;153;865724;-56
2021/12/29 01:52:23;;;;;;;14.33;7.01;;;;;;;;;;343437;152;857237;-55
2021/12/29 01:53:24;;;;;;;11.66;6.95;;;;;;;;;;341071;155;858655;-54
2021/12/29 01:54:26;;;;;;;13.78;7.20;;;;;;;;;;340833;152;858081;-55
2021/12/29 01:55:30;;;;;;;15.20;6.77;;;;;;;;;;343687;151;857391;-55
2021/12/29 01:56:32;;;;;;;12.19;6.29;;;;;;;;;;342908;155;865924;-55
2021/12/29 01:57:33;;;;;;;10.88;6.38;;;;;;;;;;342187;151;857399;-56
2021/12/29 01:58:35;;;;;;;10.93;6.22;;;;;;;;;;342975;151;865874;-56
2021/12/29 01:59:37;;;;;;;10.87;6.31;;;;;;;;;;344611;151;865165;-56
2021/12/29 02:00:39;;;;;;;10.15;5.85;;;;;;;;;;348987;152;865543;-57
2021/12/29 02:01:40;;;;;;;13.22;5.66;;;;;;;;;;350071;150;858761;-55
2021/12/29 02:02:42;;;;;;;11.96;6.22;;;;;;;;;;350139;150;857310;-56
2021/12/29 02:03:43;;;;;;;13.29;6.68;;;;;;;;;;341772;157;857388;-56
2021/12/29 02:04:45;;;;;;;9.24;5.75;;;;;;;;;;342714;154;856955;-55
2021/12/29 02:05:48;;;;;;;11.80;6.17;;;;;;;;;;343492;152;856468;-55
2021/12/29 02:06:49;;;;;;;10.63;5.47;;;;;;;;;;342631;154;865976;-54
2021/12/29 02:07:51;;;;;;;10.25;5.75;;;;;;;;;;346798;152;857277;-54
2021/12/29 02:08:55;;;;;;;11.39;5.36;;;;;;;;;;344231;153;865054;-54
2021/12/29 02:09:56;;;;;;;9.21;5.09;;;;;;;;;;343049;152;864992;-54
2021/12/29 02:11:00;;;;;;;10.00;5.19;;;;;;;;;;344737;152;865329;-55
2021/12/29 02:12:02;;;;;;;10.25;5.32;;;;;;;;;;343735;155;865064;-55
2021/12/29 02:13:03;;;;;;;11.37;5.61;;;;;;;;;;344566;152;858394;-54
2021/12/29 02:14:06;;;;;;;10.24;5.51;;;;;;;;;;344198;155;859418;-54
2021/12/29 02:15:08;;;;;;;8.53;5.22;;;;;;;;;;341341;155;863577;-58
2021/12/29 02:16:10;;;;;;;10.09;5.51;;;;;;;;;;343436;155;859353;-57
2021/12/29 02:17:13;;;;;;;11.18;5.60;;;;;;;;;;343107;153;857143;-56
2021/12/29 02:18:18;;;;;;;9.58;5.40;;;;;;;;;;344177;152;857395;-55
2021/12/29 02:19:20;;;;;;;10.06;5.11;;;;;;;;;;344886;155;857237;-55
2021/12/29 02:20:24;;;;;;;10.25;5.31;;;;;;;;;;342018;154;857252;-54
2021/12/29 02:21:26;;;;;;;9.04;5.53;;;;;;;;;;341671;152;857236;-54
2021/12/29 02:23:45;;;;;;;7.89;5.24;;;;;;;;;;341385;153;858890;-55
2021/12/29 02:24:42;;;;;;;11.11;5.69;;;;;;;;;;339934;155;864811;-55
2021/12/29 02:25:49;;;;;;;11.99;5.71;;;;;;;;;;349979;152;857480;-56
2021/12/29 02:26:47;;;;;;;10.48;5.39;;;;;;;;;;346640;150;857536;-55
2021/12/29 02:27:53;;;;;;;9.97;5.61;;;;;;;;;;347800;152;857641;-55
2021/12/29 02:28:55;;;;;;;9.69;5.44;;;;;;;;;;349418;152;864949;-55
2021/12/29 02:29:57;;;;;;;9.11;5.13;;;;;;;;;;347858;150;859518;-55
2021/12/29 02:30:59;;;;;;;9.51;5.22;;;;;;;;;;350221;150;864996;-55
2021/12/29 02:32:01;;;;;;;9.48;5.29;;;;;;;;;;348483;150;866796;-55
2021/12/29 02:33:05;;;;;;;14.11;5.48;;;;;;;;;;349002;152;857209;-56
2021/12/29 02:34:08;;;;;;;7.81;4.83;;;;;;;;;;349137;150;857257;-56
2021/12/29 02:35:10;;;;;;;8.84;5.15;;;;;;;;;;348625;150;857259;-56
2021/12/29 02:36:12;;;;;;;10.68;5.71;;;;;;;;;;348503;152;865638;-57
2021/12/29 02:37:19;;;;;;;10.78;5.94;;;;;;;;;;350464;152;864983;-57
2021/12/29 02:38:19;;;;;;;9.54;4.96;;;;;;;;;;348220;152;866646;-55
2021/12/29 02:39:21;;;;;;;8.88;5.12;;;;;;;;;;349391;151;859680;-55
2021/12/29 02:40:24;;;;;;;8.65;5.58;;;;;;;;;;349094;150;857565;-55
2021/12/29 02:41:26;;;;;;;7.09;4.37;;;;;;;;;;349635;150;858867;-54
2021/12/29 02:42:30;;;;;;;10.43;5.60;;;;;;;;;;348750;150;864768;-55
2021/12/29 02:43:36;;;;;;;9.51;4.89;;;;;;;;;;347829;151;857259;-56
2021/12/29 02:44:40;;;;;;;9.31;5.03;;;;;;;;;;347913;152;858096;-54
2021/12/29 02:45:39;;;;;;;10.01;5.82;;;;;;;;;;346578;150;858514;-54
2021/12/29 02:46:41;;;;;;;10.98;6.21;;;;;;;;;;348010;151;857339;-55
2021/12/29 02:47:42;;;;;;;10.43;5.48;;;;;;;;;;348552;152;865723;-55
2021/12/29 02:48:52;;;;;;;11.45;4.83;;;;;;;;;;350353;152;865648;-55
2021/12/29 02:49:49;;;;;;;9.81;4.88;;;;;;;;;;349539;150;859052;-55
2021/12/29 02:50:55;;;;;;;8.37;5.22;;;;;;;;;;348178;151;857211;-55
2021/12/29 02:51:54;;;;;;;10.13;4.96;;;;;;;;;;348373;152;865576;-56
2021/12/29 02:52:56;;;;;;;9.42;5.17;;;;;;;;;;349835;150;857652;-56
2021/12/29 02:53:57;;;;;;;9.94;4.59;;;;;;;;;;349468;151;857595;-55
2021/12/29 02:54:59;;;;;;;8.89;4.86;;;;;;;;;;347054;152;857352;-55
2021/12/29 02:56:00;;;;;;;8.41;4.89;;;;;;;;;;351172;151;857344;-54
2021/12/29 02:57:02;;;;;;;9.07;5.04;;;;;;;;;;350079;150;864845;-53
2021/12/29 02:58:03;;;;;;;8.73;5.02;;;;;;;;;;349359;151;865086;-55
2021/12/29 02:59:05;;;;;;;8.95;5.71;;;;;;;;;;347537;152;865539;-54
2021/12/29 03:00:07;;;;;;;10.47;5.40;;;;;;;;;;350847;152;865164;-55
2021/12/29 03:01:10;;;;;;;8.96;5.31;;;;;;;;;;344023;154;857473;-56
2021/12/29 03:02:12;;;;;;;14.29;5.42;;;;;;;;;;343343;153;860025;-58
2021/12/29 03:03:14;;;;;;;10.30;5.13;;;;;;;;;;351615;150;857399;-57
2021/12/29 03:04:16;;;;;;;10.61;5.07;;;;;;;;;;349768;151;857277;-55
2021/12/29 03:05:19;;;;;;;8.76;4.16;;;;;;;;;;349864;150;865047;-56
2021/12/29 03:06:21;;;;;;;11.49;5.61;;;;;;;;;;347697;152;864929;-55
2021/12/29 03:07:23;;;;;;;7.91;5.39;;;;;;;;;;348351;151;857397;-55
2021/12/29 03:08:24;;;;;;;8.76;4.79;;;;;;;;;;348919;151;864778;-55
2021/12/29 03:09:26;;;;;;;10.54;5.91;;;;;;;;;;349544;150;857181;-55
2021/12/29 03:10:27;;;;;;;10.36;5.84;;;;;;;;;;353055;151;860847;-55
2021/12/29 03:11:29;;;;;;;11.14;5.59;;;;;;;;;;348690;150;860855;-55
2021/12/29 03:12:30;;;;;;;12.18;5.20;;;;;;;;;;348822;151;865891;-55
2021/12/29 03:13:33;;;;;;;9.84;5.39;;;;;;;;;;349582;152;858300;-55
2021/12/29 03:14:34;;;;;;;12.27;5.64;;;;;;;;;;347858;150;866333;-54
2021/12/29 03:15:36;;;;;;;12.52;6.33;;;;;;;;;;348599;151;857321;-55
2021/12/29 03:16:38;;;;;;;9.65;5.34;;;;;;;;;;348945;151;865067;-56
2021/12/29 03:17:39;;;;;;;10.23;5.03;;;;;;;;;;347859;152;857404;-55
2021/12/29 03:18:42;;;;;;;10.51;5.71;;;;;;;;;;349220;151;857433;-55
2021/12/29 03:19:43;;;;;;;10.24;5.52;;;;;;;;;;348384;150;866727;-55
2021/12/29 03:20:45;;;;;;;8.66;5.20;;;;;;;;;;350135;152;858294;-55
2021/12/29 03:21:47;;;;;;;11.97;6.06;;;;;;;;;;349682;151;865799;-55
2021/12/29 03:22:48;;;;;;;12.90;5.89;;;;;;;;;;348152;151;859506;-55
2021/12/29 03:23:50;;;;;;;10.84;5.41;;;;;;;;;;348540;152;865003;-55
2021/12/29 03:24:51;;;;;;;9.25;5.61;;;;;;;;;;350373;151;864861;-55
2021/12/29 03:25:53;;;;;;;10.49;5.46;;;;;;;;;;353049;150;864871;-55
2021/12/29 03:26:55;;;;;;;8.49;5.17;;;;;;;;;;349227;150;864918;-55
2021/12/29 03:27:58;;;;;;;9.41;5.29;;;;;;;;;;348579;152;864923;-55
2021/12/29 03:29:00;;;;;;;11.04;6.01;;;;;;;;;;347894;150;859460;-56
2021/12/29 03:30:02;;;;;;;8.37;5.06;;;;;;;;;;348297;150;858778;-56
2021/12/29 03:31:04;;;;;;;10.71;5.75;;;;;;;;;;347808;152;865085;-56
2021/12/29 03:32:08;;;;;;;9.05;5.21;;;;;;;;;;349721;151;859320;-55
2021/12/29 03:33:09;;;;;;;8.81;5.21;;;;;;;;;;348560;151;864795;-56
2021/12/29 03:34:11;;;;;;;9.86;5.49;;;;;;;;;;349175;150;857454;-55
2021/12/29 03:35:12;;;;;;;13.40;5.59;;;;;;;;;;348129;152;866840;-56
2021/12/29 03:36:14;;;;;;;11.00;5.35;;;;;;;;;;349994;152;866173;-56
2021/12/29 03:37:16;;;;;;;9.04;4.66;;;;;;;;;;350358;150;857472;-56
2021/12/29 03:38:19;;;;;;;9.57;4.72;;;;;;;;;;347820;152;866064;-56
2021/12/29 03:39:23;;;;;;;9.20;5.01;;;;;;;;;;347645;152;865708;-56
2021/12/29 03:40:26;;;;;;;11.09;4.37;;;;;;;;;;349292;150;860069;-55
2021/12/29 03:41:28;;;;;;;7.81;4.60;;;;;;;;;;348035;151;858903;-55
2021/12/29 03:42:30;;;;;;;11.14;4.94;;;;;;;;;;347831;152;857312;-56
2021/12/29 03:43:32;;;;;;;8.47;4.79;;;;;;;;;;348238;152;865021;-55
2021/12/29 03:44:34;;;;;;;10.06;4.54;;;;;;;;;;348804;150;860686;-55
2021/12/29 03:45:37;;;;;;;8.17;4.49;;;;;;;;;;349583;151;857564;-56
2021/12/29 03:46:40;;;;;;;9.37;4.79;;;;;;;;;;348895;152;857361;-56
2021/12/29 03:47:42;;;;;;;10.29;5.17;;;;;;;;;;348271;152;859243;-56
2021/12/29 03:48:44;;;;;;;7.08;3.89;;;;;;;;;;350076;150;858701;-56
2021/12/29 03:49:46;;;;;;;7.39;3.49;;;;;;;;;;344596;152;865574;-56
2021/12/29 03:50:48;;;;;;;9.95;4.79;;;;;;;;;;351239;149;856561;-56
2021/12/29 03:51:49;;;;;;;6.75;4.22;;;;;;;;;;343669;149;865117;-55
2021/12/29 03:52:51;;;;;;;9.11;5.05;;;;;;;;;;344943;152;857197;-55
2021/12/29 03:53:52;;;;;;;9.04;5.41;;;;;;;;;;352405;148;857147;-55
2021/12/29 03:54:54;;;;;;;7.84;4.08;;;;;;;;;;352373;149;865328;-53
2021/12/29 03:55:55;;;;;;;8.32;4.74;;;;;;;;;;350370;149;864672;-56
2021/12/29 03:57:01;;;;;;;7.53;4.61;;;;;;;;;;355344;148;857270;-55
2021/12/29 03:58:01;;;;;;;8.22;4.61;;;;;;;;;;356390;150;865553;-55
2021/12/29 03:59:02;;;;;;;5.71;3.57;;;;;;;;;;355959;149;864816;-56
2021/12/29 04:00:05;;;;;;;10.32;3.84;;;;;;;;;;356305;147;864936;-56
2021/12/29 04:01:07;;;;;;;6.79;4.71;;;;;;;;;;355253;148;864776;-56
2021/12/29 04:02:08;;;;;;;7.77;4.59;;;;;;;;;;357373;149;857677;-57
2021/12/29 04:03:10;;;;;;;10.65;4.46;;;;;;;;;;356177;148;857203;-55
2021/12/29 04:04:12;;;;;;;7.46;4.45;;;;;;;;;;355429;147;866614;-56
2021/12/29 04:05:14;;;;;;;10.73;5.01;;;;;;;;;;356358;147;865436;-56
2021/12/29 04:06:18;;;;;;;6.66;4.36;;;;;;;;;;358345;148;865770;-56
2021/12/29 04:07:19;;;;;;;8.61;4.67;;;;;;;;;;355161;147;857268;-55
2021/12/29 04:08:21;;;;;;;10.39;4.74;;;;;;;;;;355026;148;856653;-55
2021/12/29 04:09:22;;;;;;;10.14;4.77;;;;;;;;;;356467;150;864739;-55
2021/12/29 04:10:24;;;;;;;7.46;4.23;;;;;;;;;;355303;148;866499;-54
2021/12/29 04:11:26;;;;;;;7.12;3.61;;;;;;;;;;357910;147;857107;-55
2021/12/29 04:12:28;;;;;;;9.75;4.55;;;;;;;;;;356536;148;868471;-56
2021/12/29 04:13:29;;;;;;;7.85;4.01;;;;;;;;;;358008;148;857366;-55
2021/12/29 04:14:31;;;;;;;6.82;4.29;;;;;;;;;;357175;148;865785;-54
2021/12/29 04:15:33;;;;;;;7.81;4.40;;;;;;;;;;355911;147;858880;-55
2021/12/29 04:16:40;;;;;;;7.11;4.13;;;;;;;;;;356726;150;857226;-55
2021/12/29 04:17:41;;;;;;;7.07;4.26;;;;;;;;;;354449;148;856046;-56
2021/12/29 04:18:55;;;;;;;7.37;4.56;;;;;;;;;;356371;147;857363;-55
2021/12/29 04:31:51;;;;;;;7.26;4.12;;;;;;;-5.75;66.33;99570.23;378576;141;880298;-56
2021/12/29 04:32:53;;;;;;;6.17;3.95;;;;;;;-5.82;66.08;99564.82;366419;144;857266;-55
2021/12/29 04:33:55;;;;;;;7.17;4.28;;;;;;;-5.82;66.08;99565.67;367272;144;857176;-57
2021/12/29 04:34:57;;;;;;;8.75;4.41;;;;;;;-5.82;65.93;99568.19;370164;144;858639;-55
2021/12/29 04:35:58;;;;;;;7.93;4.57;;;;;;;-5.82;65.97;99570.72;366419;144;857218;-55
2021/12/29 04:37:00;;;;;;;7.46;4.12;;;;;;;-5.90;65.95;99567.78;366841;144;865191;-55
2021/12/29 04:38:02;;;;;;;8.01;4.19;;;;;;;-5.91;66.14;99568.56;366760;144;857220;-55
2021/12/29 04:39:04;;;;;;;9.24;4.69;;;;;;;-5.92;66.18;99571.02;369409;144;855985;-55
2021/12/29 04:40:08;;;;;;;7.71;4.64;;;;;;;-5.99;66.15;99569.83;366399;144;857138;-54
2021/12/29 04:41:10;;;;;;;6.46;3.96;;;;;;;-6.01;66.31;99571.44;366610;144;858975;-56
2021/12/29 04:42:12;;;;;;;7.15;4.25;;;;;;;-6.09;66.63;99571.05;367453;144;857300;-58
2021/12/29 04:43:14;;;;;;;8.95;4.75;;;;;;;-6.05;66.79;99579.63;368437;144;856022;-61
2021/12/29 04:44:15;;;;;;;10.38;4.68;;;;;;;-6.03;66.73;99571.37;366981;144;857218;-65
2021/12/29 04:45:17;;;;;;;7.64;4.51;;;;;;;-6.00;66.88;99573.13;365520;144;864951;-63
2021/12/29 04:46:27;;;;;;;9.21;4.94;;;;;;;-5.95;66.74;99568.34;366983;144;865284;-59
2021/12/29 04:47:28;;;;;;;9.86;4.42;;;;;;;-5.95;66.51;99569.20;366047;144;857813;-59
2021/12/29 04:48:30;;;;;;;7.96;4.69;;;;;;;-5.92;66.67;99565.98;367115;144;860674;-61
2021/12/29 04:49:39;;;;;;;7.35;4.59;;;;;;;-5.89;66.60;99566.99;364985;144;857250;-63
2021/12/29 04:50:38;;;;;;;6.61;4.49;;;;;;;-5.84;66.71;99578.97;361793;147;864741;-60
2021/12/29 04:51:54;;;;;;;8.28;5.08;;;;;;;-5.83;66.56;99575.66;363407;145;857316;-59
2021/12/29 04:52:52;;;;;;;7.09;4.43;;;;;;;-5.80;66.49;99576.70;362605;146;858735;-58
2021/12/29 04:53:54;;;;;;;8.60;4.21;;;;;;;-5.80;65.93;99571.66;364095;147;858544;-60
2021/12/29 04:54:56;;;;;;;7.07;4.43;;;;;;;-5.82;65.98;99574.91;362810;147;860309;-62
2021/12/29 04:55:58;;;;;;;7.91;4.83;;;;;;;-5.83;66.10;99584.11;363531;146;859203;-62
2021/12/29 04:57:00;;;;;;;7.14;3.97;;;;;;;-5.84;66.07;99586.53;364588;146;857398;-57
2021/12/29 04:58:02;;;;;;;8.03;3.91;;;;;;;-5.86;66.00;99584.80;362558;147;857213;-61
2021/12/29 04:59:04;;;;;;;7.33;4.61;;;;;;;-5.87;66.02;99579.70;360438;147;857435;-60
2021/12/29 05:00:07;;;;;;;7.89;4.11;;;;;;;-5.87;66.17;99580.55;363309;146;859043;-60
2021/12/29 05:01:09;;;;;;;7.11;4.39;;;;;;;-5.85;66.36;99578.12;365239;147;857693;-58
2021/12/29 05:02:10;;;;;;;7.21;4.11;;;;;;;-5.82;66.22;99579.95;363411;147;858533;-58
2021/12/29 05:03:12;;;;;;;7.57;4.39;;;;;;;-5.80;66.16;99581.75;363623;146;858830;-57
2021/12/29 05:04:22;;;;;;;9.52;5.19;;;;;;;-5.83;66.15;99583.22;364877;146;857206;-57
2021/12/29 05:05:22;;;;;;;7.59;4.71;;;;;;;;;;359746;147;857865;-56
2021/12/29 05:09:02;;;;;;;8.80;4.12;;;;;;;;;;364646;146;865270;-56
2021/12/29 05:10:04;;;;;;;5.52;3.77;;;;;;;;;;364370;147;859681;-56
2021/12/29 05:11:08;;;;;;;6.93;4.06;;;;;;;;;;362560;146;858793;-56
2021/12/29 05:12:09;;;;;;;10.88;4.50;;;;;;;;;;363735;146;864196;-56
2021/12/29 05:13:11;;;;;;;6.36;4.14;;;;;;;;;;365050;147;866158;-56
2021/12/29 05:14:13;;;;;;;9.26;4.44;;;;;;;;;;363078;146;865230;-56
2021/12/29 05:15:15;;;;;;;8.26;4.53;;;;;;;;;;362491;146;860157;-55
2021/12/29 05:16:18;;;;;;;7.90;4.09;;;;;;;;;;364197;147;859173;-56
2021/12/29 05:17:20;;;;;;;9.36;4.66;;;;;;;;;;362094;146;857838;-55
2021/12/29 05:18:22;;;;;;;5.46;4.04;;;;;;;;;;361200;146;857686;-56
2021/12/29 05:19:24;;;;;;;8.35;4.66;;;;;;;;;;363488;147;863107;-55
2021/12/29 05:20:27;;;;;;;7.33;4.31;;;;;;;;;;363343;147;864795;-55
2021/12/29 05:21:30;;;;;;;7.53;4.35;;;;;;;;;;363775;147;857560;-57
2021/12/29 05:22:31;;;;;;;8.39;4.69;;;;;;;;;;365113;146;858592;-59
2021/12/29 05:23:33;;;;;;;7.46;4.46;;;;;;;;;;361697;147;866176;-57
2021/12/29 05:24:34;;;;;;;8.09;4.38;;;;;;;;;;364142;147;864850;-59
2021/12/29 05:25:36;;;;;;;7.91;4.59;;;;;;;;;;363506;146;864820;-58
2021/12/29 05:26:38;;;;;;;9.17;4.29;;;;;;;;;;363308;147;864876;-59
2021/12/29 05:27:40;;;;;;;7.59;4.45;;;;;;;;;;364024;146;864763;-57
2021/12/29 05:28:41;;;;;;;9.31;4.47;;;;;;;;;;363185;147;857396;-57
2021/12/29 05:29:43;;;;;;;9.71;4.27;;;;;;;;;;363486;146;866746;-57
2021/12/29 05:30:45;;;;;;;7.86;4.48;;;;;;;;;;362453;146;865102;-57
2021/12/29 05:31:46;;;;;;;7.44;4.49;;;;;;;;;;361694;147;864817;-58
2021/12/29 05:32:48;;;;;;;7.99;4.91;;;;;;;;;;360005;147;864893;-56
2021/12/29 05:33:49;;;;;;;9.29;5.19;;;;;;;;;;360860;145;859969;-54
2021/12/29 05:34:51;;;;;;;8.78;4.93;;;;;;;;;;361584;145;865227;-57
2021/12/29 05:35:52;;;;;;;8.36;4.06;;;;;;;;;;362260;147;864911;-57
2021/12/29 05:36:54;;;;;;;6.64;3.99;;;;;;;;;;360508;145;866957;-59
2021/12/29 05:37:56;;;;;;;7.65;4.67;;;;;;;;;;358855;147;857248;-57
2021/12/29 05:38:58;;;;;;;7.93;4.58;;;;;;;;;;359437;148;866528;-57
2021/12/29 05:39:59;;;;;;;8.16;4.67;;;;;;;;;;362811;146;859514;-57
2021/12/29 05:41:01;;;;;;;8.57;4.25;;;;;;;;;;359958;145;857234;-58
2021/12/29 05:42:03;;;;;;;6.30;4.56;;;;;;;;;;359714;147;857293;-58
2021/12/29 05:43:05;;;;;;;8.09;4.63;;;;;;;;;;359744;148;864935;-59
2021/12/29 05:44:06;;;;;;;7.96;4.64;;;;;;;;;;357479;147;858661;-57
2021/12/29 05:45:09;;;;;;;8.17;4.25;;;;;;;;;;360779;145;864829;-57
2021/12/29 05:46:11;;;;;;;7.56;4.17;;;;;;;;;;360496;148;866060;-58
2021/12/29 05:47:12;;;;;;;7.04;3.95;;;;;;;;;;358289;148;857376;-57
2021/12/29 05:48:14;;;;;;;6.11;4.34;;;;;;;;;;359740;147;858354;-60
2021/12/29 05:49:16;;;;;;;9.84;4.48;;;;;;;;;;359771;147;857190;-59
2021/12/29 05:50:19;;;;;;;8.21;4.19;;;;;;;;;;358985;147;862494;-58
2021/12/29 05:51:21;;;;;;;8.61;3.97;;;;;;;;;;360204;147;857132;-57
2021/12/29 05:52:23;;;;;;;9.03;4.36;;;;;;;;;;361246;146;857181;-58
2021/12/29 05:53:24;;;;;;;6.05;4.03;;;;;;;;;;362009;145;864893;-57
2021/12/29 05:54:27;;;;;;;5.54;3.53;;;;;;;;;;359605;148;859384;-57
2021/12/29 05:55:28;;;;;;;9.26;4.62;;;;;;;;;;359158;146;865701;-56
2021/12/29 05:56:30;;;;;;;7.14;4.54;;;;;;;;;;360010;146;857293;-57
2021/12/29 05:57:32;;;;;;;7.75;3.85;;;;;;;;;;359752;148;865350;-57
2021/12/29 05:58:33;;;;;;;8.13;4.40;;;;;;;;;;358247;147;857105;-60
2021/12/29 05:59:35;;;;;;;8.39;4.88;;;;;;;;;;359367;145;864841;-58
2021/12/29 06:00:38;;;;;;;7.75;4.73;;;;;;;;;;360705;147;857295;-58
2021/12/29 06:01:40;;;;;;;7.63;4.53;;;;;;;;;;360261;148;858357;-57
2021/12/29 06:02:41;;;;;;;10.91;5.38;;;;;;;;;;361014;147;865815;-58
2021/12/29 06:03:43;;;;;;;8.91;4.56;;;;;;;;;;359224;145;856955;-58
2021/12/29 06:04:45;;;;;;;6.99;4.70;;;;;;;;;;360631;147;863949;-58
2021/12/29 06:05:47;;;;;;;7.56;4.66;;;;;;;;;;360458;146;856487;-57
2021/12/29 06:06:48;;;;;;;6.71;4.08;;;;;;;;;;360154;147;857558;-58
2021/12/29 06:07:50;;;;;;;7.73;4.46;;;;;;;;;;361875;146;860274;-58
2021/12/29 06:08:51;;;;;;;8.06;4.16;;;;;;;;;;358363;148;864871;-57
2021/12/29 06:09:53;;;;;;;7.43;4.01;;;;;;;;;;362249;147;857225;-57
2021/12/29 06:10:54;;;;;;;9.81;4.32;;;;;;;;;;361637;147;857781;-57
2021/12/29 06:11:56;;;;;;;7.28;4.76;;;;;;;;;;358659;146;864040;-58
2021/12/29 06:12:57;;;;;;;7.54;4.44;;;;;;;;;;358922;148;864485;-59